KTUL Airport (Tulsa Intl) Information

FAA: TUL - ICAO: KTUL

KTUL Airport Location

State Oklahoma
County Tulsa
City Tulsa
KTUL Airport is 5 miles northeast of Tulsa, OK.
Latitude 36-11-54.2000N
Longitude 095-53-17.2000W
Elevation 677ft

KTUL Airport METARs

METAR KTUL 072053Z 00000KT 10SM SCT013 OVC023 11/08 A3022 RMK AO2 SLP234 T01060078 55001
Altimeter 30.22"
Temperature 10.6°C (51.1°F)
Wind 0° at 0KT
Clouds scattered at 1,300ft overcast at 2,300ft
Visibility 10.0mi
Time observed: 2022-12-07T20:53:00Z

KTUL Airport Details

Status Operational
Activation August 1942
Ownership Public
Usage Public
Chart KANSAS CITY
ATC on-site Yes
Beacon schedule sunset-sunrise
Beacon color clear green

KTUL Airport Contacts

Owner CITY OF TULSA
Owner address TULSA ARPT AUTH. BOX 581838, TULSA, OK 74158
Owner phone 918-838-5000
Manager BRANN LINGENFELTER
Manager address CITY HALL PO BOX 457, TALIHINA, OK 74571
Manager phone (918) 413-2088

KTUL Airport (Tulsa Intl) Radio Frequencies

KTUL (Airport) Radio Frequencies

UNICOM 122.95
Common traffic advisory frequency (CTAF) N/A